createdAt,value
2022-09-28T00:01:25.608Z,40.28
2022-09-28T00:03:54.912Z,41.60
2022-09-28T00:06:24.464Z,44.92
2022-09-28T00:08:51.529Z,46.03
2022-09-28T00:11:20.825Z,38.85
2022-09-28T00:13:52.726Z,44.08
2022-09-28T00:16:22.056Z,37.97
2022-09-28T00:18:51.070Z,39.55
2022-09-28T00:21:22.149Z,36.50
2022-09-28T00:24:11.267Z,35.90
2022-09-28T00:26:41.084Z,39.08
2022-09-28T00:29:13.402Z,40.13
2022-09-28T00:31:40.164Z,36.60
2022-09-28T00:34:07.120Z,40.30
2022-09-28T00:36:34.171Z,37.55
2022-09-28T00:39:08.542Z,35.65
2022-09-28T00:41:36.002Z,38.47
2022-09-28T00:44:24.541Z,43.17
2022-09-28T00:46:53.304Z,38.47
2022-09-28T00:49:26.549Z,40.13
2022-09-28T00:51:53.357Z,39.30
2022-09-28T00:54:21.905Z,33.80
2022-09-28T00:56:49.333Z,34.58
2022-09-28T00:59:16.527Z,34.65
2022-09-28T01:01:43.924Z,31.85
2022-09-28T01:04:10.906Z,36.17
2022-09-28T01:06:38.946Z,31.48
2022-09-28T01:09:09.984Z,34.53
2022-09-28T01:11:38.935Z,31.20
2022-09-28T01:14:09.901Z,34.92
2022-09-28T01:16:58.491Z,28.60
2022-09-28T01:19:55.250Z,29.98
2022-09-28T01:22:41.373Z,28.63
2022-09-28T01:25:34.231Z,29.65
2022-09-28T01:28:13.869Z,30.25
2022-09-28T01:31:08.021Z,33.45
2022-09-28T01:33:44.023Z,31.63
2022-09-28T01:36:18.618Z,29.00
2022-09-28T01:38:54.941Z,32.63
2022-09-28T01:41:24.975Z,29.58
2022-09-28T01:43:57.553Z,34.03
2022-09-28T01:46:30.347Z,33.70
2022-09-28T01:48:58.971Z,31.15
2022-09-28T01:51:39.852Z,29.08
2022-09-28T01:54:24.708Z,30.80
2022-09-28T01:57:05.721Z,32.88
2022-09-28T01:59:34.575Z,32.13
2022-09-28T02:02:11.177Z,31.98
2022-09-28T02:04:47.264Z,30.20
2022-09-28T02:07:32.214Z,32.47
2022-09-28T02:10:05.405Z,31.17
2022-09-28T02:12:45.123Z,27.88
2022-09-28T02:15:27.961Z,32.28
2022-09-28T02:17:55.000Z,30.48
2022-09-28T02:20:23.891Z,29.00
2022-09-28T02:22:55.868Z,31.95
2022-09-28T02:25:35.924Z,30.88
2022-09-28T02:28:05.905Z,32.22
2022-09-28T02:30:35.621Z,29.30
2022-09-28T02:33:12.496Z,31.35
2022-09-28T02:35:41.404Z,29.27
2022-09-28T02:38:08.481Z,31.25
2022-09-28T02:40:37.897Z,30.05
2022-09-28T02:43:22.001Z,28.95
2022-09-28T02:46:13.739Z,31.10
2022-09-28T02:49:17.246Z,32.17
2022-09-28T02:52:06.994Z,32.60
2022-09-28T02:55:15.145Z,29.58
2022-09-28T02:57:54.106Z,31.77
2022-09-28T03:00:23.504Z,32.10
2022-09-28T03:03:11.536Z,28.98
2022-09-28T03:06:02.299Z,28.95
2022-09-28T03:08:48.620Z,29.55
2022-09-28T03:11:25.208Z,27.00
2022-09-28T03:13:52.797Z,32.03
2022-09-28T03:16:20.733Z,26.95
2022-09-28T03:18:47.904Z,29.60
2022-09-28T03:21:15.533Z,30.38
2022-09-28T03:23:43.019Z,29.20
2022-09-28T03:26:14.170Z,33.80
2022-09-28T03:28:41.006Z,29.58
2022-09-28T03:31:07.921Z,31.92
2022-09-28T03:33:35.152Z,31.40
2022-09-28T03:36:02.127Z,31.77
2022-09-28T03:38:28.892Z,35.40
2022-09-28T03:41:00.315Z,37.38
2022-09-28T03:43:28.249Z,28.50
2022-09-28T03:46:00.157Z,31.77
2022-09-28T03:48:32.346Z,33.13
2022-09-28T03:51:03.766Z,35.97
2022-09-28T03:53:31.131Z,35.30
2022-09-28T03:56:04.014Z,33.30
2022-09-28T03:58:30.766Z,33.80
2022-09-28T04:01:06.052Z,37.47
2022-09-28T04:03:33.427Z,33.97
2022-09-28T04:06:00.830Z,36.92
2022-09-28T04:08:27.904Z,34.63
2022-09-28T04:10:58.891Z,34.90
2022-09-28T04:13:27.224Z,32.22
2022-09-28T04:15:56.677Z,33.78
2022-09-28T04:18:23.957Z,27.92
2022-09-28T04:21:04.623Z,29.60
2022-09-28T04:23:31.437Z,34.38
2022-09-28T04:25:58.469Z,34.42
2022-09-28T04:28:44.089Z,33.40
2022-09-28T04:31:16.957Z,32.97
2022-09-28T04:33:43.917Z,35.42
2022-09-28T04:36:11.146Z,33.95
2022-09-28T04:38:52.215Z,35.05
2022-09-28T04:41:22.298Z,32.15
2022-09-28T04:43:49.777Z,34.60
2022-09-28T04:46:17.284Z,30.38
2022-09-28T04:48:44.296Z,31.10
2022-09-28T04:51:11.096Z,34.35
2022-09-28T04:53:37.869Z,37.13
2022-09-28T04:56:11.263Z,32.78
2022-09-28T04:58:38.574Z,32.58
2022-09-28T05:01:08.359Z,35.50
2022-09-28T05:03:35.752Z,34.70
2022-09-28T05:06:02.738Z,33.90
2022-09-28T05:08:30.073Z,34.30
2022-09-28T05:11:05.956Z,34.22
2022-09-28T05:13:35.815Z,33.58
2022-09-28T05:16:05.395Z,33.25
2022-09-28T05:18:32.797Z,32.63
2022-09-28T05:20:59.832Z,30.08
2022-09-28T05:23:26.764Z,32.55
2022-09-28T05:25:53.628Z,29.98
2022-09-28T05:28:27.160Z,33.88
2022-09-28T05:30:58.081Z,29.50
2022-09-28T05:33:24.874Z,32.60
2022-09-28T05:35:55.135Z,32.50
2022-09-28T05:38:24.144Z,28.35
2022-09-28T05:40:50.976Z,28.42
2022-09-28T05:43:18.082Z,30.48
2022-09-28T05:45:45.224Z,32.20
2022-09-28T05:48:12.079Z,28.92
2022-09-28T05:50:38.859Z,29.70
2022-09-28T05:53:10.047Z,36.42
2022-09-28T05:55:37.603Z,31.92
2022-09-28T05:58:06.571Z,31.75
2022-09-28T06:00:35.127Z,30.38
2022-09-28T06:03:12.992Z,36.42
2022-09-28T06:05:40.406Z,30.77
2022-09-28T06:08:10.349Z,30.70
2022-09-28T06:10:37.613Z,32.95
2022-09-28T06:13:05.147Z,29.70
2022-09-28T06:15:33.898Z,29.40
2022-09-28T06:18:01.729Z,26.90
2022-09-28T06:20:31.357Z,30.30
2022-09-28T06:22:58.135Z,30.52
2022-09-28T06:25:27.579Z,28.95
2022-09-28T06:27:59.456Z,31.75
2022-09-28T06:30:27.903Z,29.00
2022-09-28T06:32:56.972Z,28.23
2022-09-28T06:35:26.094Z,30.85
2022-09-28T06:37:53.911Z,32.28
2022-09-28T06:40:22.182Z,28.60
2022-09-28T06:43:17.480Z,27.42
2022-09-28T06:45:44.306Z,33.85
2022-09-28T06:48:11.584Z,28.98
2022-09-28T06:50:40.905Z,34.55
2022-09-28T06:53:10.656Z,26.40
2022-09-28T06:55:42.435Z,28.83
2022-09-28T06:58:14.398Z,27.60
2022-09-28T07:00:41.981Z,25.02
2022-09-28T07:03:13.822Z,27.48
2022-09-28T07:05:46.854Z,26.00
2022-09-28T07:08:15.133Z,28.35
2022-09-28T07:10:49.588Z,28.65
2022-09-28T07:13:44.331Z,27.40
2022-09-28T07:16:04.428Z,27.25
2022-09-28T07:18:31.245Z,25.23
2022-09-28T07:20:58.850Z,31.77
2022-09-28T07:23:28.540Z,31.05
2022-09-28T07:25:55.352Z,32.08
2022-09-28T07:28:22.548Z,30.27
2022-09-28T07:30:49.485Z,30.13
2022-09-28T07:33:17.642Z,27.98
2022-09-28T07:35:55.540Z,25.30
2022-09-28T07:38:22.793Z,22.88
2022-09-28T07:41:08.128Z,22.15
2022-09-28T07:43:35.416Z,21.57
2022-09-28T07:46:02.361Z,23.85
2022-09-28T07:48:37.788Z,24.20
2022-09-28T07:51:04.843Z,25.58
2022-09-28T07:53:31.699Z,24.05
2022-09-28T07:56:07.372Z,20.83
2022-09-28T07:58:39.278Z,22.52
2022-09-28T08:01:11.337Z,22.35
2022-09-28T08:03:38.825Z,20.90
2022-09-28T08:06:07.587Z,22.15
2022-09-28T08:08:35.797Z,22.42
2022-09-28T08:11:03.429Z,23.52
2022-09-28T08:13:31.133Z,22.83
2022-09-28T08:16:01.592Z,23.05
2022-09-28T08:18:28.684Z,25.55
2022-09-28T08:21:13.967Z,25.33
2022-09-28T08:23:40.934Z,19.57
2022-09-28T08:26:12.106Z,18.27
2022-09-28T08:28:42.866Z,20.48
2022-09-28T08:31:09.760Z,18.55
2022-09-28T08:33:36.658Z,18.45
2022-09-28T08:36:04.535Z,20.30
2022-09-28T08:38:32.682Z,20.35
2022-09-28T08:41:05.170Z,19.02
2022-09-28T08:43:55.790Z,17.63
2022-09-28T08:46:27.121Z,20.42
2022-09-28T08:49:26.299Z,19.98
2022-09-28T08:52:07.764Z,21.25
2022-09-28T08:54:54.623Z,19.05
2022-09-28T08:57:32.165Z,22.15
2022-09-28T09:00:01.943Z,21.83
2022-09-28T09:02:33.966Z,17.50
2022-09-28T09:05:06.182Z,22.92
2022-09-28T09:07:41.571Z,20.80
2022-09-28T09:10:30.180Z,19.35
2022-09-28T09:13:05.614Z,19.85
2022-09-28T09:15:50.537Z,16.33
2022-09-28T09:18:49.254Z,17.90
2022-09-28T09:21:34.856Z,18.98
2022-09-28T09:24:14.073Z,19.83
2022-09-28T09:26:41.886Z,21.45
2022-09-28T09:29:30.355Z,21.02
2022-09-28T09:32:04.331Z,22.58
2022-09-28T09:34:52.898Z,18.90
2022-09-28T09:37:34.456Z,19.17
2022-09-28T09:40:18.118Z,17.20
2022-09-28T09:43:20.535Z,18.25
2022-09-28T09:46:17.102Z,16.77
2022-09-28T09:49:09.892Z,17.60
2022-09-28T09:52:01.169Z,17.65
2022-09-28T09:54:45.617Z,17.73
2022-09-28T09:57:28.083Z,20.92
2022-09-28T09:59:57.920Z,18.90
2022-09-28T10:02:30.751Z,20.30
2022-09-28T10:05:07.737Z,16.80
2022-09-28T10:07:52.834Z,17.00
2022-09-28T10:10:28.284Z,21.95
2022-09-28T10:12:55.672Z,18.33
2022-09-28T10:15:27.797Z,20.30
2022-09-28T10:17:56.957Z,19.30
2022-09-28T10:20:25.612Z,19.90
2022-09-28T10:22:54.115Z,16.92
2022-09-28T10:25:21.313Z,18.27
2022-09-28T10:27:52.358Z,19.02
2022-09-28T10:30:25.504Z,18.40
2022-09-28T10:32:58.945Z,18.40
2022-09-28T10:35:31.428Z,23.95
2022-09-28T10:37:58.413Z,17.90
2022-09-28T10:40:39.685Z,17.88
2022-09-28T10:43:21.921Z,22.83
2022-09-28T10:45:49.676Z,20.17
2022-09-28T10:48:23.045Z,15.10
2022-09-28T10:51:06.402Z,18.00
2022-09-28T10:53:37.141Z,17.50
2022-09-28T10:56:22.496Z,20.27
2022-09-28T10:58:49.294Z,19.75
2022-09-28T11:01:22.608Z,19.92
2022-09-28T11:04:10.883Z,21.88
2022-09-28T11:06:40.024Z,21.90
2022-09-28T11:09:29.756Z,22.40
2022-09-28T11:11:59.510Z,19.70
2022-09-28T11:14:41.083Z,20.15
2022-09-28T11:17:43.914Z,22.40
2022-09-28T11:20:35.495Z,20.35
2022-09-28T11:23:26.795Z,19.63
2022-09-28T11:25:59.982Z,22.38
2022-09-28T11:28:32.717Z,22.15
2022-09-28T11:31:01.444Z,18.15
2022-09-28T11:33:41.708Z,24.60
2022-09-28T11:36:41.888Z,25.65
2022-09-28T11:39:38.588Z,20.90
2022-09-28T11:42:16.214Z,19.67
2022-09-28T11:44:46.433Z,18.30
2022-09-28T11:47:21.805Z,20.92
2022-09-28T11:49:52.353Z,22.08
2022-09-28T11:52:29.121Z,23.73
2022-09-28T11:55:01.276Z,24.90
2022-09-28T11:57:35.542Z,23.45
2022-09-28T12:00:10.680Z,21.77
2022-09-28T12:02:46.213Z,22.00
2022-09-28T12:05:33.336Z,20.55
2022-09-28T12:08:16.885Z,23.48
2022-09-28T12:10:58.371Z,22.05
2022-09-28T12:13:33.026Z,25.48
2022-09-28T12:21:50.638Z,25.60
2022-09-28T12:24:43.964Z,26.67
2022-09-28T12:27:10.689Z,23.88
2022-09-28T12:29:48.127Z,28.42
2022-09-28T12:32:39.328Z,25.67
2022-09-28T12:35:36.542Z,24.50
2022-09-28T12:38:09.271Z,26.88
2022-09-28T12:40:52.828Z,25.52
2022-09-28T12:43:54.624Z,23.15
2022-09-28T12:46:48.991Z,21.55
2022-09-28T12:50:33.389Z,22.98
2022-09-28T12:52:49.889Z,25.20
2022-09-28T12:55:25.062Z,25.70
2022-09-28T12:58:45.888Z,25.00
2022-09-28T13:01:24.443Z,31.88
2022-09-28T13:04:13.340Z,25.00
2022-09-28T13:07:05.880Z,29.15
2022-09-28T13:09:58.770Z,23.23
2022-09-28T13:12:30.486Z,26.98
2022-09-28T13:15:17.794Z,27.25
2022-09-28T13:18:13.768Z,31.02
2022-09-28T13:21:03.817Z,25.30
2022-09-28T13:23:39.388Z,31.80
2022-09-28T13:26:15.270Z,28.60
2022-09-28T13:28:45.402Z,37.15
2022-09-28T13:31:15.535Z,25.00
2022-09-28T13:33:44.969Z,28.88
2022-09-28T13:36:30.156Z,30.58
2022-09-28T13:38:59.490Z,32.92
2022-09-28T13:41:31.776Z,26.60
2022-09-28T13:44:23.895Z,32.38
2022-09-28T13:46:59.955Z,26.50
2022-09-28T13:49:51.236Z,36.63
2022-09-28T13:52:26.839Z,31.35
2022-09-28T13:54:56.581Z,31.40
2022-09-28T13:57:37.277Z,30.23
2022-09-28T14:00:22.094Z,34.97
2022-09-28T14:02:58.877Z,33.97
2022-09-28T14:05:53.246Z,38.05
2022-09-28T14:08:36.546Z,32.88
2022-09-28T14:11:27.567Z,25.73
2022-09-28T14:14:00.435Z,27.08
2022-09-28T14:16:32.390Z,27.08
2022-09-28T14:19:08.507Z,25.38
2022-09-28T14:22:00.724Z,29.73
2022-09-28T14:24:34.448Z,25.85
2022-09-28T14:27:10.070Z,25.20
2022-09-28T14:29:39.008Z,18.50
2022-09-28T14:32:33.093Z,21.13
2022-09-28T14:35:06.875Z,18.27
2022-09-28T14:37:59.954Z,23.10
2022-09-28T14:41:12.572Z,19.77
2022-09-28T14:43:45.407Z,21.73
2022-09-28T14:46:15.447Z,21.95
2022-09-28T14:48:55.230Z,21.48
2022-09-28T14:51:24.993Z,22.40
2022-09-28T14:53:52.431Z,24.38
2022-09-28T14:56:20.776Z,21.00
2022-09-28T14:58:55.782Z,23.15
2022-09-28T15:01:24.813Z,21.55
2022-09-28T15:03:54.742Z,21.40
2022-09-28T15:06:26.925Z,23.58
2022-09-28T15:08:53.673Z,24.02
2022-09-28T15:11:23.562Z,24.15
2022-09-28T15:14:04.453Z,29.52
2022-09-28T15:16:32.155Z,27.85
2022-09-28T15:19:30.153Z,30.38
2022-09-28T15:21:56.942Z,26.80
2022-09-28T15:24:31.921Z,26.15
2022-09-28T15:27:00.453Z,31.77
2022-09-28T15:29:31.180Z,30.27
2022-09-28T15:31:59.023Z,28.73
2022-09-28T15:34:54.596Z,28.85
2022-09-28T15:37:27.878Z,29.02
2022-09-28T15:39:57.436Z,38.00
2022-09-28T15:42:24.757Z,66.40
2022-09-28T15:45:15.060Z,47.55
2022-09-28T15:47:43.607Z,35.80
2022-09-28T15:50:22.103Z,33.67
2022-09-28T15:53:04.455Z,36.97
2022-09-28T15:55:37.319Z,40.95
2022-09-28T15:58:17.169Z,36.40
2022-09-28T16:01:12.013Z,41.88
2022-09-28T16:03:38.825Z,38.38
2022-09-28T16:06:08.226Z,39.60
2022-09-28T16:08:42.812Z,42.80
2022-09-28T16:11:27.409Z,42.40
2022-09-28T16:14:02.616Z,41.20
2022-09-28T16:16:50.280Z,47.55
2022-09-28T16:19:36.178Z,47.78
2022-09-28T16:22:07.410Z,46.47
2022-09-28T16:24:36.879Z,42.50
2022-09-28T16:27:04.910Z,46.63
2022-09-28T16:29:45.015Z,47.33
2022-09-28T16:32:26.975Z,47.70
2022-09-28T16:35:17.441Z,47.65
2022-09-28T16:37:44.521Z,46.58
2022-09-28T16:40:14.230Z,47.60
2022-09-28T16:42:48.153Z,45.33
2022-09-28T16:45:22.331Z,46.25
2022-09-28T16:47:52.922Z,45.78
2022-09-28T16:50:21.588Z,42.85
2022-09-28T16:53:34.125Z,51.78
2022-09-28T16:56:02.075Z,48.20
2022-09-28T16:58:29.003Z,45.97
2022-09-28T17:00:56.461Z,43.15
2022-09-28T17:03:23.754Z,45.15
2022-09-28T17:05:51.517Z,46.30
2022-09-28T17:08:22.289Z,46.08
2022-09-28T17:11:15.810Z,43.95
2022-09-28T17:13:42.413Z,40.95
2022-09-28T17:16:28.206Z,33.92
2022-09-28T17:19:20.770Z,26.88
2022-09-28T17:21:48.187Z,17.15
2022-09-28T17:24:15.027Z,12.63
2022-09-28T17:26:43.847Z,8.80
2022-09-28T17:29:14.543Z,7.70
2022-09-28T17:31:45.354Z,8.88
2022-09-28T17:34:16.102Z,8.63
2022-09-28T17:36:44.201Z,8.02
2022-09-28T17:39:13.595Z,6.95
2022-09-28T17:41:40.947Z,6.63
2022-09-28T17:44:08.203Z,5.47
2022-09-28T17:46:37.790Z,5.65
2022-09-28T17:49:07.883Z,6.95
2022-09-28T17:51:39.790Z,5.93
2022-09-28T17:54:08.165Z,5.82
2022-09-28T17:56:36.283Z,6.10
2022-09-28T17:59:06.288Z,8.48
2022-09-28T18:01:34.687Z,5.97
2022-09-28T18:04:04.203Z,5.70
2022-09-28T18:06:34.052Z,5.30
2022-09-28T18:09:03.152Z,5.25
2022-09-28T18:11:31.110Z,5.13
2022-09-28T18:13:57.926Z,7.03
2022-09-28T18:16:25.795Z,7.15
2022-09-28T18:18:52.595Z,5.35
2022-09-28T18:21:19.982Z,5.60
2022-09-28T18:23:46.783Z,8.10
2022-09-28T18:26:15.238Z,5.32
2022-09-28T18:28:42.300Z,5.05
2022-09-28T18:31:10.995Z,5.85
2022-09-28T18:33:38.515Z,5.25
2022-09-28T18:36:06.445Z,5.60
2022-09-28T18:38:36.356Z,5.55
2022-09-28T18:41:12.034Z,7.40
2022-09-28T18:43:38.763Z,9.27
2022-09-28T18:46:09.991Z,8.82
2022-09-28T18:48:37.877Z,10.38
2022-09-28T18:51:09.638Z,7.28
2022-09-28T18:53:36.856Z,8.35
2022-09-28T18:56:08.467Z,6.47
2022-09-28T18:58:37.216Z,6.10
2022-09-28T19:01:29.962Z,7.45
2022-09-28T19:04:01.734Z,6.57
2022-09-28T19:06:29.148Z,7.13
2022-09-28T19:08:56.661Z,6.53
2022-09-28T19:11:24.420Z,8.82
2022-09-28T19:13:53.862Z,10.02
2022-09-28T19:16:24.215Z,6.32
2022-09-28T19:18:53.422Z,9.02
2022-09-28T19:21:20.802Z,6.45
2022-09-28T19:23:49.760Z,8.55
2022-09-28T19:26:20.980Z,6.65
2022-09-28T19:28:48.369Z,6.40
2022-09-28T19:31:15.619Z,6.07
2022-09-28T19:33:43.162Z,6.57
2022-09-28T19:36:12.660Z,7.13
2022-09-28T19:38:40.397Z,6.20
2022-09-28T19:41:39.334Z,6.18
2022-09-28T19:44:29.704Z,6.30
2022-09-28T19:46:58.064Z,6.15
2022-09-28T19:49:26.643Z,5.32
2022-09-28T19:52:15.141Z,6.53
2022-09-28T19:54:57.311Z,6.95
2022-09-28T19:57:25.951Z,8.38
2022-09-28T19:59:55.802Z,6.10
2022-09-28T20:02:24.827Z,6.88
2022-09-28T20:04:51.672Z,6.50
2022-09-28T20:07:18.391Z,6.95
2022-09-28T20:09:45.197Z,6.80
2022-09-28T20:12:12.002Z,5.35
2022-09-28T20:14:40.379Z,6.25
2022-09-28T20:17:07.713Z,6.38
2022-09-28T20:19:35.064Z,4.82
2022-09-28T20:22:02.831Z,7.13
2022-09-28T20:24:31.379Z,6.85
2022-09-28T20:26:58.391Z,5.55
2022-09-28T20:29:25.224Z,5.63
2022-09-28T20:31:52.249Z,5.65
2022-09-28T20:34:19.245Z,5.20
2022-09-28T20:36:46.057Z,5.22
2022-09-28T20:39:13.129Z,6.25
2022-09-28T20:41:40.362Z,6.70
2022-09-28T20:44:07.447Z,6.80
2022-09-28T20:46:35.329Z,6.43
2022-09-28T20:49:02.542Z,7.63
2022-09-28T20:51:29.318Z,8.18
2022-09-28T20:53:57.780Z,6.10
2022-09-28T20:56:34.531Z,11.23
2022-09-28T20:59:01.372Z,7.05
2022-09-28T21:01:30.523Z,6.75
2022-09-28T21:03:59.582Z,7.97
2022-09-28T21:06:28.595Z,5.60
2022-09-28T21:08:55.438Z,6.13
2022-09-28T21:11:24.478Z,7.60
2022-09-28T21:13:57.076Z,5.88
2022-09-28T21:16:24.941Z,5.65
2022-09-28T21:18:51.901Z,5.68
2022-09-28T21:21:20.285Z,6.90
2022-09-28T21:23:47.513Z,5.45
2022-09-28T21:26:18.895Z,5.75
2022-09-28T21:28:46.653Z,5.88
2022-09-28T21:31:14.587Z,6.40
2022-09-28T21:33:41.355Z,6.35
2022-09-28T21:36:08.560Z,6.03
2022-09-28T21:38:35.368Z,6.10
2022-09-28T21:41:02.551Z,5.25
2022-09-28T21:43:31.546Z,5.68
2022-09-28T21:45:58.531Z,6.50
2022-09-28T21:48:27.388Z,6.03
2022-09-28T21:51:02.526Z,7.43
2022-09-28T21:53:32.313Z,6.90
2022-09-28T21:56:00.874Z,5.55
2022-09-28T21:58:31.192Z,9.50
2022-09-28T22:01:07.071Z,6.40
2022-09-28T22:03:35.947Z,7.30
2022-09-28T22:06:04.139Z,8.40
2022-09-28T22:08:31.274Z,6.03
2022-09-28T22:11:01.908Z,8.98
2022-09-28T22:13:31.774Z,7.70
2022-09-28T22:15:59.155Z,5.72
2022-09-28T22:18:30.596Z,5.93
2022-09-28T22:21:01.140Z,9.25
2022-09-28T22:23:29.131Z,10.80
2022-09-28T22:26:13.933Z,7.63
2022-09-28T22:28:46.447Z,8.18
2022-09-28T22:31:14.865Z,6.10
2022-09-28T22:33:41.726Z,6.20
2022-09-28T22:36:08.730Z,8.68
2022-09-28T22:38:35.643Z,6.38
2022-09-28T22:41:05.114Z,5.97
2022-09-28T22:43:32.301Z,5.57
2022-09-28T22:46:11.149Z,7.13
2022-09-28T22:48:38.505Z,8.30
2022-09-28T22:51:06.667Z,6.53
2022-09-28T22:53:34.468Z,6.65
2022-09-28T22:56:05.285Z,8.98
2022-09-28T22:58:33.261Z,8.45
2022-09-28T23:01:27.591Z,5.80
2022-09-28T23:03:55.734Z,8.63
2022-09-28T23:06:25.914Z,7.18
2022-09-28T23:08:53.373Z,5.93
2022-09-28T23:11:20.299Z,5.63
2022-09-28T23:13:54.123Z,9.10
2022-09-28T23:16:23.363Z,5.75
2022-09-28T23:18:50.301Z,5.97
2022-09-28T23:21:19.774Z,6.22
2022-09-28T23:23:52.278Z,6.45
2022-09-28T23:26:22.036Z,5.75
2022-09-28T23:28:49.107Z,6.75
2022-09-28T23:31:24.488Z,7.60
2022-09-28T23:33:51.457Z,5.18
2022-09-28T23:36:18.748Z,5.65
2022-09-28T23:38:45.548Z,6.28
2022-09-28T23:41:12.414Z,5.97
2022-09-28T23:43:39.192Z,5.07
2022-09-28T23:46:06.681Z,5.53
2022-09-28T23:48:33.876Z,4.75
2022-09-28T23:51:01.066Z,6.53
2022-09-28T23:53:28.468Z,4.63
2022-09-28T23:55:55.667Z,5.07
2022-09-28T23:58:22.676Z,5.20
